Coleman A. Young Municipal Airport
KDET : now visible

Airfield :











YOU CAN JOIN US ON...

 
LOGIN :

Register | Disclaimer

   EN    FR    IT 

 









Legend :    VFR   Marginal VFR   IFR   Intensive IFR   Very Intensive IFR
Visi :
Ceiling :
>= 8 km
>= 3000ft
5 to 8 km
1000 to 3000 ft
1500m to 5 km
500 to 1000 ft
800 to 1500m
200 to 500 ft
< 800m
< 200 ft
Symbols :   Thunderstorms  Fog  Heavy snow  Heavy precipitations  Wind > 20 kt






- Airport Elevation : 626 ft
- IATA code : DET


KDET - Coleman A. Young Municipal

CURRENT METAR :
  • 050653Z 00000KT 10SM CLR 16/14 A3003 RMK AO2 SLP165 T01610144

EXPIRED METARs :
  • 050553Z 00000KT 10SM CLR 17/14 A3002 RMK AO2 SLP164 T01670144 10189 20167 50004
  • 050453Z 30003KT 10SM SCT100 17/14 A3002 RMK AO2 SLP164 T01720144 402330172

TAF KDET
Valid from the 05 at 06:00 until the 06 at 06:00 UTC


050520Z 0506/0606 33004KT P6SM FEW080
FM051500 27005KT P6SM SCT050
TEMPO 0516/0520 BKN050
FM060200 VRB03KT P6SM SCT250
KZOB FIR / North America



MET'MAP, your aeronautical weather chart ! - Copyright ORBIFLY December 2007 - Disclaimer

ORBIFLY MET'MAP TEAM :

Programming & Development : Alexandra Zaïnal
Concept & original design : Baudouin d'Aumeries
Assistance for programming : Marc-Olivier Méhu
Technical & hardware support : Manuel Goepfert

Contact : metmap@orbifly.com




SOURCES & CREDITS :

   NOAA       Earth
Advisory